sensor_id;sensor_type;location;lat;lon;timestamp;P1;durP1;ratioP1;P2;durP2;ratioP2
6292;SDS011;3179;54.350;10.102;2023-04-22T00:00:08;3.50;;;1.70;;
6292;SDS011;3179;54.350;10.102;2023-04-22T00:02:37;2.63;;;1.73;;
6292;SDS011;3179;54.350;10.102;2023-04-22T00:05:04;3.03;;;2.03;;
6292;SDS011;3179;54.350;10.102;2023-04-22T00:07:32;2.33;;;1.97;;
6292;SDS011;3179;54.350;10.102;2023-04-22T00:09:59;2.27;;;1.80;;
6292;SDS011;3179;54.350;10.102;2023-04-22T00:12:26;9.33;;;2.20;;
6292;SDS011;3179;54.350;10.102;2023-04-22T00:14:53;5.33;;;1.97;;
6292;SDS011;3179;54.350;10.102;2023-04-22T00:17:20;4.10;;;2.37;;
6292;SDS011;3179;54.350;10.102;2023-04-22T00:19:47;5.60;;;1.90;;
6292;SDS011;3179;54.350;10.102;2023-04-22T00:22:13;2.00;;;1.60;;
6292;SDS011;3179;54.350;10.102;2023-04-22T00:24:42;2.60;;;2.17;;
6292;SDS011;3179;54.350;10.102;2023-04-22T00:27:08;5.33;;;1.97;;
6292;SDS011;3179;54.350;10.102;2023-04-22T00:29:35;3.83;;;1.83;;
6292;SDS011;3179;54.350;10.102;2023-04-22T00:32:02;2.63;;;2.23;;
6292;SDS011;3179;54.350;10.102;2023-04-22T00:34:29;2.97;;;2.07;;
6292;SDS011;3179;54.350;10.102;2023-04-22T00:36:56;3.60;;;2.20;;
6292;SDS011;3179;54.350;10.102;2023-04-22T00:39:22;4.23;;;2.13;;
6292;SDS011;3179;54.350;10.102;2023-04-22T00:41:50;2.80;;;1.87;;
6292;SDS011;3179;54.350;10.102;2023-04-22T00:44:17;3.00;;;2.53;;
6292;SDS011;3179;54.350;10.102;2023-04-22T00:46:44;2.40;;;2.00;;
6292;SDS011;3179;54.350;10.102;2023-04-22T00:49:12;2.17;;;1.83;;
6292;SDS011;3179;54.350;10.102;2023-04-22T00:51:40;4.33;;;1.80;;
6292;SDS011;3179;54.350;10.102;2023-04-22T00:54:06;3.70;;;2.10;;
6292;SDS011;3179;54.350;10.102;2023-04-22T00:56:33;2.17;;;1.97;;
6292;SDS011;3179;54.350;10.102;2023-04-22T00:59:04;3.33;;;2.37;;
6292;SDS011;3179;54.350;10.102;2023-04-22T01:01:31;5.07;;;1.93;;
6292;SDS011;3179;54.350;10.102;2023-04-22T01:03:58;4.07;;;1.80;;
6292;SDS011;3179;54.350;10.102;2023-04-22T01:06:25;2.87;;;1.90;;
6292;SDS011;3179;54.350;10.102;2023-04-22T01:08:55;4.50;;;1.90;;
6292;SDS011;3179;54.350;10.102;2023-04-22T01:11:22;2.90;;;2.10;;
6292;SDS011;3179;54.350;10.102;2023-04-22T01:13:49;2.97;;;2.10;;
6292;SDS011;3179;54.350;10.102;2023-04-22T01:16:24;3.73;;;2.27;;
6292;SDS011;3179;54.350;10.102;2023-04-22T01:18:53;2.27;;;1.90;;
6292;SDS011;3179;54.350;10.102;2023-04-22T01:21:20;2.57;;;2.20;;
6292;SDS011;3179;54.350;10.102;2023-04-22T01:23:49;4.27;;;2.13;;
6292;SDS011;3179;54.350;10.102;2023-04-22T01:26:16;2.43;;;1.60;;
6292;SDS011;3179;54.350;10.102;2023-04-22T01:28:43;2.87;;;2.20;;
6292;SDS011;3179;54.350;10.102;2023-04-22T01:31:10;4.57;;;2.00;;
6292;SDS011;3179;54.350;10.102;2023-04-22T01:33:37;4.33;;;2.10;;
6292;SDS011;3179;54.350;10.102;2023-04-22T01:36:04;3.97;;;2.30;;
6292;SDS011;3179;54.350;10.102;2023-04-22T01:38:31;3.70;;;2.00;;
6292;SDS011;3179;54.350;10.102;2023-04-22T01:41:00;7.03;;;2.43;;
6292;SDS011;3179;54.350;10.102;2023-04-22T01:43:27;3.07;;;2.63;;
6292;SDS011;3179;54.350;10.102;2023-04-22T01:45:55;3.20;;;2.20;;
6292;SDS011;3179;54.350;10.102;2023-04-22T01:48:32;2.70;;;2.50;;
6292;SDS011;3179;54.350;10.102;2023-04-22T01:51:00;5.03;;;2.53;;
6292;SDS011;3179;54.350;10.102;2023-04-22T01:53:27;2.70;;;2.03;;
6292;SDS011;3179;54.350;10.102;2023-04-22T01:55:53;3.47;;;2.03;;
6292;SDS011;3179;54.350;10.102;2023-04-22T01:58:20;6.20;;;2.67;;
6292;SDS011;3179;54.350;10.102;2023-04-22T02:00:47;4.60;;;2.30;;
6292;SDS011;3179;54.350;10.102;2023-04-22T02:03:14;5.30;;;2.40;;
6292;SDS011;3179;54.350;10.102;2023-04-22T02:05:42;1.67;;;1.57;;
6292;SDS011;3179;54.350;10.102;2023-04-22T02:08:08;5.90;;;2.07;;
6292;SDS011;3179;54.350;10.102;2023-04-22T02:10:35;2.13;;;1.93;;
6292;SDS011;3179;54.350;10.102;2023-04-22T02:13:02;2.33;;;2.13;;
6292;SDS011;3179;54.350;10.102;2023-04-22T02:15:29;3.10;;;2.00;;
6292;SDS011;3179;54.350;10.102;2023-04-22T02:17:55;2.93;;;2.40;;
6292;SDS011;3179;54.350;10.102;2023-04-22T02:20:22;4.50;;;2.63;;
6292;SDS011;3179;54.350;10.102;2023-04-22T02:22:50;4.03;;;2.87;;
6292;SDS011;3179;54.350;10.102;2023-04-22T02:25:17;2.83;;;2.53;;
6292;SDS011;3179;54.350;10.102;2023-04-22T02:27:44;6.83;;;2.27;;
6292;SDS011;3179;54.350;10.102;2023-04-22T02:30:11;4.57;;;2.57;;
6292;SDS011;3179;54.350;10.102;2023-04-22T02:32:38;3.50;;;2.40;;
6292;SDS011;3179;54.350;10.102;2023-04-22T02:35:05;2.60;;;2.40;;
6292;SDS011;3179;54.350;10.102;2023-04-22T02:37:33;2.87;;;2.33;;
6292;SDS011;3179;54.350;10.102;2023-04-22T02:40:01;5.17;;;2.40;;
6292;SDS011;3179;54.350;10.102;2023-04-22T02:42:28;9.73;;;2.83;;
6292;SDS011;3179;54.350;10.102;2023-04-22T02:44:55;3.40;;;2.50;;
6292;SDS011;3179;54.350;10.102;2023-04-22T02:47:22;3.67;;;2.53;;
6292;SDS011;3179;54.350;10.102;2023-04-22T02:49:49;8.70;;;2.23;;
6292;SDS011;3179;54.350;10.102;2023-04-22T02:52:16;2.90;;;2.40;;
6292;SDS011;3179;54.350;10.102;2023-04-22T02:54:42;3.90;;;2.20;;
6292;SDS011;3179;54.350;10.102;2023-04-22T02:57:10;5.73;;;2.30;;
6292;SDS011;3179;54.350;10.102;2023-04-22T02:59:37;3.73;;;2.60;;
6292;SDS011;3179;54.350;10.102;2023-04-22T03:02:04;5.47;;;2.13;;
6292;SDS011;3179;54.350;10.102;2023-04-22T03:04:31;3.17;;;2.00;;
6292;SDS011;3179;54.350;10.102;2023-04-22T03:06:57;4.97;;;2.37;;
6292;SDS011;3179;54.350;10.102;2023-04-22T03:09:24;2.93;;;2.37;;
6292;SDS011;3179;54.350;10.102;2023-04-22T03:11:51;2.47;;;2.27;;
6292;SDS011;3179;54.350;10.102;2023-04-22T03:14:19;3.80;;;2.80;;
6292;SDS011;3179;54.350;10.102;2023-04-22T03:16:46;4.13;;;2.67;;
6292;SDS011;3179;54.350;10.102;2023-04-22T03:19:12;3.20;;;2.80;;
6292;SDS011;3179;54.350;10.102;2023-04-22T03:21:40;4.93;;;3.20;;
6292;SDS011;3179;54.350;10.102;2023-04-22T03:24:07;4.97;;;3.30;;
6292;SDS011;3179;54.350;10.102;2023-04-22T03:26:33;3.20;;;2.60;;
6292;SDS011;3179;54.350;10.102;2023-04-22T03:29:00;2.30;;;2.10;;
6292;SDS011;3179;54.350;10.102;2023-04-22T03:31:28;3.73;;;2.33;;
6292;SDS011;3179;54.350;10.102;2023-04-22T03:33:55;4.77;;;3.10;;
6292;SDS011;3179;54.350;10.102;2023-04-22T03:36:22;4.13;;;2.77;;
6292;SDS011;3179;54.350;10.102;2023-04-22T03:38:49;4.67;;;2.40;;
6292;SDS011;3179;54.350;10.102;2023-04-22T03:41:16;2.70;;;2.47;;
6292;SDS011;3179;54.350;10.102;2023-04-22T03:43:42;5.20;;;2.70;;
6292;SDS011;3179;54.350;10.102;2023-04-22T03:46:09;4.30;;;2.90;;
6292;SDS011;3179;54.350;10.102;2023-04-22T03:48:37;3.50;;;3.03;;
6292;SDS011;3179;54.350;10.102;2023-04-22T03:51:04;5.27;;;2.87;;
6292;SDS011;3179;54.350;10.102;2023-04-22T03:53:31;3.47;;;3.13;;
6292;SDS011;3179;54.350;10.102;2023-04-22T03:55:57;4.13;;;3.37;;
6292;SDS011;3179;54.350;10.102;2023-04-22T03:58:24;4.07;;;2.77;;
6292;SDS011;3179;54.350;10.102;2023-04-22T04:00:51;4.77;;;3.30;;
6292;SDS011;3179;54.350;10.102;2023-04-22T04:03:18;3.00;;;2.70;;
6292;SDS011;3179;54.350;10.102;2023-04-22T04:05:46;3.30;;;2.87;;
6292;SDS011;3179;54.350;10.102;2023-04-22T04:08:13;2.90;;;2.70;;
6292;SDS011;3179;54.350;10.102;2023-04-22T04:10:40;4.53;;;3.37;;
6292;SDS011;3179;54.350;10.102;2023-04-22T04:13:07;3.60;;;3.30;;
6292;SDS011;3179;54.350;10.102;2023-04-22T04:15:35;4.53;;;4.00;;
6292;SDS011;3179;54.350;10.102;2023-04-22T04:18:01;3.50;;;3.20;;
6292;SDS011;3179;54.350;10.102;2023-04-22T04:20:29;3.57;;;2.87;;
6292;SDS011;3179;54.350;10.102;2023-04-22T04:22:57;3.13;;;2.80;;
6292;SDS011;3179;54.350;10.102;2023-04-22T04:25:24;6.83;;;3.90;;
6292;SDS011;3179;54.350;10.102;2023-04-22T04:27:50;4.73;;;3.50;;
6292;SDS011;3179;54.350;10.102;2023-04-22T04:30:17;3.80;;;3.40;;
6292;SDS011;3179;54.350;10.102;2023-04-22T04:32:45;4.03;;;3.30;;
6292;SDS011;3179;54.350;10.102;2023-04-22T04:35:12;5.67;;;3.13;;
6292;SDS011;3179;54.350;10.102;2023-04-22T04:37:40;6.20;;;3.50;;
6292;SDS011;3179;54.350;10.102;2023-04-22T04:40:09;4.80;;;3.20;;
6292;SDS011;3179;54.350;10.102;2023-04-22T04:42:37;4.43;;;4.00;;
6292;SDS011;3179;54.350;10.102;2023-04-22T04:45:04;5.93;;;3.63;;
6292;SDS011;3179;54.350;10.102;2023-04-22T04:47:32;6.60;;;4.07;;
6292;SDS011;3179;54.350;10.102;2023-04-22T04:49:59;3.17;;;2.67;;
6292;SDS011;3179;54.350;10.102;2023-04-22T04:52:28;4.40;;;4.00;;
6292;SDS011;3179;54.350;10.102;2023-04-22T04:54:55;5.00;;;3.80;;
6292;SDS011;3179;54.350;10.102;2023-04-22T04:57:23;5.20;;;3.07;;
6292;SDS011;3179;54.350;10.102;2023-04-22T04:59:50;5.10;;;3.70;;
6292;SDS011;3179;54.350;10.102;2023-04-22T05:02:17;4.17;;;3.63;;
6292;SDS011;3179;54.350;10.102;2023-04-22T05:04:44;6.33;;;4.27;;
6292;SDS011;3179;54.350;10.102;2023-04-22T05:07:10;5.90;;;3.70;;
6292;SDS011;3179;54.350;10.102;2023-04-22T05:09:37;6.60;;;4.03;;
6292;SDS011;3179;54.350;10.102;2023-04-22T05:12:04;8.43;;;4.47;;
6292;SDS011;3179;54.350;10.102;2023-04-22T05:14:32;6.30;;;4.43;;
6292;SDS011;3179;54.350;10.102;2023-04-22T05:16:59;12.23;;;4.40;;
6292;SDS011;3179;54.350;10.102;2023-04-22T05:19:26;3.57;;;3.27;;
6292;SDS011;3179;54.350;10.102;2023-04-22T05:21:53;4.60;;;3.57;;
6292;SDS011;3179;54.350;10.102;2023-04-22T05:24:20;3.50;;;3.20;;
6292;SDS011;3179;54.350;10.102;2023-04-22T05:26:46;4.90;;;3.50;;
6292;SDS011;3179;54.350;10.102;2023-04-22T05:29:13;7.00;;;4.23;;
6292;SDS011;3179;54.350;10.102;2023-04-22T05:31:42;5.80;;;3.70;;
6292;SDS011;3179;54.350;10.102;2023-04-22T05:34:08;5.80;;;3.97;;
6292;SDS011;3179;54.350;10.102;2023-04-22T05:36:35;5.07;;;4.10;;
6292;SDS011;3179;54.350;10.102;2023-04-22T05:39:02;5.33;;;4.27;;
6292;SDS011;3179;54.350;10.102;2023-04-22T05:41:30;9.43;;;4.53;;
6292;SDS011;3179;54.350;10.102;2023-04-22T05:43:56;7.33;;;4.83;;
6292;SDS011;3179;54.350;10.102;2023-04-22T05:46:23;3.90;;;3.37;;
6292;SDS011;3179;54.350;10.102;2023-04-22T05:48:51;7.00;;;4.50;;
6292;SDS011;3179;54.350;10.102;2023-04-22T05:51:19;6.90;;;4.40;;
6292;SDS011;3179;54.350;10.102;2023-04-22T05:53:47;5.80;;;4.70;;
6292;SDS011;3179;54.350;10.102;2023-04-22T05:56:14;7.57;;;4.43;;
6292;SDS011;3179;54.350;10.102;2023-04-22T05:58:41;5.97;;;4.47;;
6292;SDS011;3179;54.350;10.102;2023-04-22T06:01:08;4.80;;;4.17;;
6292;SDS011;3179;54.350;10.102;2023-04-22T06:03:35;5.73;;;4.90;;
6292;SDS011;3179;54.350;10.102;2023-04-22T06:06:03;5.13;;;3.50;;
6292;SDS011;3179;54.350;10.102;2023-04-22T06:08:31;5.87;;;4.57;;
6292;SDS011;3179;54.350;10.102;2023-04-22T06:10:58;7.20;;;4.60;;
6292;SDS011;3179;54.350;10.102;2023-04-22T06:13:24;5.50;;;4.23;;
6292;SDS011;3179;54.350;10.102;2023-04-22T06:15:51;5.30;;;4.40;;
6292;SDS011;3179;54.350;10.102;2023-04-22T06:18:18;5.73;;;4.10;;
6292;SDS011;3179;54.350;10.102;2023-04-22T06:20:45;6.13;;;4.40;;
6292;SDS011;3179;54.350;10.102;2023-04-22T06:23:13;4.00;;;3.50;;
6292;SDS011;3179;54.350;10.102;2023-04-22T06:25:40;5.03;;;3.63;;
6292;SDS011;3179;54.350;10.102;2023-04-22T06:28:07;7.70;;;4.37;;
6292;SDS011;3179;54.350;10.102;2023-04-22T06:30:34;7.03;;;5.10;;
6292;SDS011;3179;54.350;10.102;2023-04-22T06:33:01;6.07;;;4.67;;
6292;SDS011;3179;54.350;10.102;2023-04-22T06:35:27;7.50;;;4.40;;
6292;SDS011;3179;54.350;10.102;2023-04-22T06:37:54;5.33;;;4.37;;
6292;SDS011;3179;54.350;10.102;2023-04-22T06:40:22;7.53;;;4.87;;
6292;SDS011;3179;54.350;10.102;2023-04-22T06:42:49;6.43;;;4.13;;
6292;SDS011;3179;54.350;10.102;2023-04-22T06:45:16;7.17;;;4.70;;
6292;SDS011;3179;54.350;10.102;2023-04-22T06:47:43;6.40;;;4.83;;
6292;SDS011;3179;54.350;10.102;2023-04-22T06:50:10;5.90;;;4.83;;
6292;SDS011;3179;54.350;10.102;2023-04-22T06:52:36;5.40;;;4.63;;
6292;SDS011;3179;54.350;10.102;2023-04-22T06:55:03;8.73;;;4.90;;
6292;SDS011;3179;54.350;10.102;2023-04-22T06:57:32;7.67;;;4.50;;
6292;SDS011;3179;54.350;10.102;2023-04-22T06:59:58;4.90;;;4.03;;
6292;SDS011;3179;54.350;10.102;2023-04-22T07:02:25;8.50;;;4.47;;
6292;SDS011;3179;54.350;10.102;2023-04-22T07:04:52;8.00;;;4.77;;
6292;SDS011;3179;54.350;10.102;2023-04-22T07:07:19;4.97;;;4.40;;
6292;SDS011;3179;54.350;10.102;2023-04-22T07:09:46;5.70;;;4.17;;
6292;SDS011;3179;54.350;10.102;2023-04-22T07:12:12;7.67;;;4.80;;
6292;SDS011;3179;54.350;10.102;2023-04-22T07:14:42;9.37;;;4.17;;
6292;SDS011;3179;54.350;10.102;2023-04-22T07:17:10;5.93;;;4.20;;
6292;SDS011;3179;54.350;10.102;2023-04-22T07:19:36;6.63;;;4.00;;
6292;SDS011;3179;54.350;10.102;2023-04-22T07:22:04;6.87;;;4.23;;
6292;SDS011;3179;54.350;10.102;2023-04-22T07:24:31;6.20;;;4.53;;
6292;SDS011;3179;54.350;10.102;2023-04-22T07:26:58;8.17;;;4.47;;
6292;SDS011;3179;54.350;10.102;2023-04-22T07:29:25;5.27;;;4.50;;
6292;SDS011;3179;54.350;10.102;2023-04-22T07:31:53;11.60;;;5.10;;
6292;SDS011;3179;54.350;10.102;2023-04-22T07:34:20;7.63;;;5.60;;
6292;SDS011;3179;54.350;10.102;2023-04-22T07:36:48;5.60;;;4.50;;
6292;SDS011;3179;54.350;10.102;2023-04-22T07:39:15;6.27;;;4.50;;
6292;SDS011;3179;54.350;10.102;2023-04-22T07:41:42;7.03;;;4.90;;
6292;SDS011;3179;54.350;10.102;2023-04-22T07:44:08;10.00;;;4.40;;
6292;SDS011;3179;54.350;10.102;2023-04-22T07:46:40;6.27;;;5.10;;
6292;SDS011;3179;54.350;10.102;2023-04-22T07:49:08;5.97;;;4.10;;
6292;SDS011;3179;54.350;10.102;2023-04-22T07:51:37;13.17;;;5.17;;
6292;SDS011;3179;54.350;10.102;2023-04-22T07:54:04;6.13;;;4.70;;
6292;SDS011;3179;54.350;10.102;2023-04-22T07:56:31;5.97;;;5.10;;
6292;SDS011;3179;54.350;10.102;2023-04-22T07:58:58;13.17;;;4.37;;
6292;SDS011;3179;54.350;10.102;2023-04-22T08:01:25;11.80;;;4.73;;
6292;SDS011;3179;54.350;10.102;2023-04-22T08:03:52;6.50;;;4.40;;
6292;SDS011;3179;54.350;10.102;2023-04-22T08:06:20;8.23;;;5.00;;
6292;SDS011;3179;54.350;10.102;2023-04-22T08:08:47;8.40;;;4.70;;
6292;SDS011;3179;54.350;10.102;2023-04-22T08:11:14;7.03;;;4.50;;
6292;SDS011;3179;54.350;10.102;2023-04-22T08:13:41;9.93;;;4.87;;
6292;SDS011;3179;54.350;10.102;2023-04-22T08:16:08;6.17;;;4.07;;
6292;SDS011;3179;54.350;10.102;2023-04-22T08:18:34;6.70;;;4.47;;
6292;SDS011;3179;54.350;10.102;2023-04-22T08:21:01;6.53;;;4.10;;
6292;SDS011;3179;54.350;10.102;2023-04-22T08:23:29;4.83;;;4.17;;
6292;SDS011;3179;54.350;10.102;2023-04-22T08:25:56;11.00;;;4.47;;
6292;SDS011;3179;54.350;10.102;2023-04-22T08:28:23;9.00;;;4.43;;
6292;SDS011;3179;54.350;10.102;2023-04-22T08:30:50;6.17;;;4.00;;
6292;SDS011;3179;54.350;10.102;2023-04-22T08:33:17;8.10;;;3.90;;
6292;SDS011;3179;54.350;10.102;2023-04-22T08:35:43;4.77;;;3.73;;
6292;SDS011;3179;54.350;10.102;2023-04-22T08:38:10;6.03;;;3.53;;
6292;SDS011;3179;54.350;10.102;2023-04-22T08:40:40;5.93;;;4.33;;
6292;SDS011;3179;54.350;10.102;2023-04-22T08:43:07;6.20;;;3.67;;
6292;SDS011;3179;54.350;10.102;2023-04-22T08:45:36;9.77;;;4.30;;
6292;SDS011;3179;54.350;10.102;2023-04-22T08:48:04;7.43;;;4.30;;
6292;SDS011;3179;54.350;10.102;2023-04-22T08:50:33;8.90;;;4.40;;
6292;SDS011;3179;54.350;10.102;2023-04-22T08:53:02;5.00;;;4.17;;
6292;SDS011;3179;54.350;10.102;2023-04-22T08:55:28;5.30;;;4.80;;
6292;SDS011;3179;54.350;10.102;2023-04-22T08:57:57;7.30;;;4.33;;
6292;SDS011;3179;54.350;10.102;2023-04-22T09:00:25;6.63;;;4.07;;
6292;SDS011;3179;54.350;10.102;2023-04-22T09:02:52;6.37;;;4.20;;
6292;SDS011;3179;54.350;10.102;2023-04-22T09:05:20;5.30;;;3.97;;
6292;SDS011;3179;54.350;10.102;2023-04-22T09:07:48;3.73;;;3.43;;
6292;SDS011;3179;54.350;10.102;2023-04-22T09:10:15;4.83;;;3.43;;
6292;SDS011;3179;54.350;10.102;2023-04-22T09:12:43;5.77;;;3.93;;
6292;SDS011;3179;54.350;10.102;2023-04-22T09:15:13;8.20;;;5.17;;
6292;SDS011;3179;54.350;10.102;2023-04-22T09:17:40;6.43;;;4.13;;
6292;SDS011;3179;54.350;10.102;2023-04-22T09:20:07;5.97;;;4.47;;
6292;SDS011;3179;54.350;10.102;2023-04-22T09:22:37;4.27;;;3.70;;
6292;SDS011;3179;54.350;10.102;2023-04-22T09:25:05;5.50;;;4.30;;
6292;SDS011;3179;54.350;10.102;2023-04-22T09:27:39;6.47;;;4.50;;
6292;SDS011;3179;54.350;10.102;2023-04-22T09:30:07;5.30;;;3.63;;
6292;SDS011;3179;54.350;10.102;2023-04-22T09:32:36;7.33;;;3.83;;
6292;SDS011;3179;54.350;10.102;2023-04-22T09:35:04;5.53;;;3.50;;
6292;SDS011;3179;54.350;10.102;2023-04-22T09:37:32;6.67;;;3.80;;
6292;SDS011;3179;54.350;10.102;2023-04-22T09:39:58;5.97;;;3.93;;
6292;SDS011;3179;54.350;10.102;2023-04-22T09:42:25;6.37;;;4.47;;
6292;SDS011;3179;54.350;10.102;2023-04-22T09:44:52;5.50;;;4.17;;
6292;SDS011;3179;54.350;10.102;2023-04-22T09:47:19;5.67;;;3.77;;
6292;SDS011;3179;54.350;10.102;2023-04-22T09:49:49;8.83;;;4.40;;
6292;SDS011;3179;54.350;10.102;2023-04-22T09:52:21;5.57;;;4.03;;
6292;SDS011;3179;54.350;10.102;2023-04-22T09:54:50;4.20;;;3.27;;
6292;SDS011;3179;54.350;10.102;2023-04-22T09:57:18;4.30;;;3.90;;
6292;SDS011;3179;54.350;10.102;2023-04-22T09:59:45;4.90;;;3.97;;
6292;SDS011;3179;54.350;10.102;2023-04-22T10:02:12;7.20;;;4.30;;
6292;SDS011;3179;54.350;10.102;2023-04-22T10:04:39;6.60;;;4.10;;
6292;SDS011;3179;54.350;10.102;2023-04-22T10:07:08;5.80;;;4.03;;
6292;SDS011;3179;54.350;10.102;2023-04-22T10:09:34;5.00;;;4.00;;
6292;SDS011;3179;54.350;10.102;2023-04-22T10:12:01;5.97;;;4.00;;
6292;SDS011;3179;54.350;10.102;2023-04-22T10:14:29;4.77;;;3.60;;
6292;SDS011;3179;54.350;10.102;2023-04-22T10:16:56;12.43;;;4.13;;
6292;SDS011;3179;54.350;10.102;2023-04-22T10:19:26;6.60;;;4.57;;
6292;SDS011;3179;54.350;10.102;2023-04-22T10:21:54;5.37;;;4.23;;
6292;SDS011;3179;54.350;10.102;2023-04-22T10:24:26;6.03;;;4.07;;
6292;SDS011;3179;54.350;10.102;2023-04-22T10:26:54;4.50;;;3.73;;
6292;SDS011;3179;54.350;10.102;2023-04-22T10:29:23;7.00;;;3.40;;
6292;SDS011;3179;54.350;10.102;2023-04-22T10:31:52;6.57;;;4.33;;
6292;SDS011;3179;54.350;10.102;2023-04-22T10:34:22;5.23;;;3.27;;
6292;SDS011;3179;54.350;10.102;2023-04-22T10:36:52;5.80;;;3.27;;
6292;SDS011;3179;54.350;10.102;2023-04-22T10:39:21;6.70;;;3.40;;
6292;SDS011;3179;54.350;10.102;2023-04-22T10:41:51;7.83;;;3.87;;
6292;SDS011;3179;54.350;10.102;2023-04-22T10:44:19;3.93;;;2.93;;
6292;SDS011;3179;54.350;10.102;2023-04-22T10:46:56;5.03;;;3.67;;
6292;SDS011;3179;54.350;10.102;2023-04-22T10:49:25;5.47;;;3.63;;
6292;SDS011;3179;54.350;10.102;2023-04-22T10:51:54;3.60;;;3.13;;
6292;SDS011;3179;54.350;10.102;2023-04-22T10:57:27;7.87;;;3.77;;
6292;SDS011;3179;54.350;10.102;2023-04-22T11:00:00;7.90;;;3.50;;
6292;SDS011;3179;54.350;10.102;2023-04-22T11:02:42;7.60;;;3.60;;
6292;SDS011;3179;54.350;10.102;2023-04-22T11:05:19;5.83;;;3.37;;
6292;SDS011;3179;54.350;10.102;2023-04-22T11:07:47;6.60;;;3.80;;
6292;SDS011;3179;54.350;10.102;2023-04-22T11:10:34;6.07;;;3.27;;
6292;SDS011;3179;54.350;10.102;2023-04-22T11:13:06;4.67;;;3.33;;
6292;SDS011;3179;54.350;10.102;2023-04-22T11:15:35;5.50;;;3.50;;
6292;SDS011;3179;54.350;10.102;2023-04-22T11:18:06;5.77;;;4.07;;
6292;SDS011;3179;54.350;10.102;2023-04-22T11:20:34;6.00;;;3.43;;
6292;SDS011;3179;54.350;10.102;2023-04-22T11:23:01;3.83;;;3.23;;
6292;SDS011;3179;54.350;10.102;2023-04-22T11:25:28;5.00;;;3.30;;
6292;SDS011;3179;54.350;10.102;2023-04-22T11:27:56;4.40;;;3.50;;
6292;SDS011;3179;54.350;10.102;2023-04-22T11:30:25;3.83;;;3.40;;
6292;SDS011;3179;54.350;10.102;2023-04-22T11:32:53;4.03;;;3.03;;
6292;SDS011;3179;54.350;10.102;2023-04-22T11:35:22;4.07;;;3.13;;
6292;SDS011;3179;54.350;10.102;2023-04-22T11:37:50;8.37;;;3.67;;
6292;SDS011;3179;54.350;10.102;2023-04-22T11:40:18;4.40;;;3.10;;
6292;SDS011;3179;54.350;10.102;2023-04-22T11:42:46;4.03;;;3.63;;
6292;SDS011;3179;54.350;10.102;2023-04-22T11:45:14;3.50;;;3.20;;
6292;SDS011;3179;54.350;10.102;2023-04-22T11:47:42;3.73;;;3.30;;
6292;SDS011;3179;54.350;10.102;2023-04-22T11:50:11;6.53;;;4.00;;
6292;SDS011;3179;54.350;10.102;2023-04-22T11:52:42;5.10;;;3.03;;
6292;SDS011;3179;54.350;10.102;2023-04-22T11:55:11;2.83;;;2.63;;
6292;SDS011;3179;54.350;10.102;2023-04-22T11:57:39;5.80;;;3.67;;
6292;SDS011;3179;54.350;10.102;2023-04-22T12:00:06;5.77;;;3.40;;
6292;SDS011;3179;54.350;10.102;2023-04-22T12:02:37;4.80;;;2.67;;
6292;SDS011;3179;54.350;10.102;2023-04-22T12:05:07;4.83;;;2.40;;
6292;SDS011;3179;54.350;10.102;2023-04-22T12:07:36;6.77;;;3.33;;
6292;SDS011;3179;54.350;10.102;2023-04-22T12:10:04;3.30;;;3.00;;
6292;SDS011;3179;54.350;10.102;2023-04-22T12:12:32;2.63;;;2.37;;
6292;SDS011;3179;54.350;10.102;2023-04-22T12:15:05;2.90;;;2.53;;
6292;SDS011;3179;54.350;10.102;2023-04-22T12:17:33;3.63;;;2.37;;
6292;SDS011;3179;54.350;10.102;2023-04-22T12:20:00;3.27;;;2.90;;
6292;SDS011;3179;54.350;10.102;2023-04-22T12:22:29;3.37;;;2.90;;
6292;SDS011;3179;54.350;10.102;2023-04-22T12:24:57;3.90;;;2.60;;
6292;SDS011;3179;54.350;10.102;2023-04-22T12:27:24;11.53;;;3.20;;
6292;SDS011;3179;54.350;10.102;2023-04-22T12:29:52;3.40;;;2.73;;
6292;SDS011;3179;54.350;10.102;2023-04-22T12:32:21;3.80;;;3.17;;
6292;SDS011;3179;54.350;10.102;2023-04-22T12:34:48;3.47;;;2.97;;
6292;SDS011;3179;54.350;10.102;2023-04-22T12:37:15;6.97;;;3.47;;
6292;SDS011;3179;54.350;10.102;2023-04-22T12:39:44;2.60;;;2.40;;
6292;SDS011;3179;54.350;10.102;2023-04-22T12:42:11;2.87;;;2.67;;
6292;SDS011;3179;54.350;10.102;2023-04-22T12:44:37;4.33;;;2.70;;
6292;SDS011;3179;54.350;10.102;2023-04-22T12:47:05;3.00;;;2.67;;
6292;SDS011;3179;54.350;10.102;2023-04-22T12:49:33;5.47;;;2.83;;
6292;SDS011;3179;54.350;10.102;2023-04-22T12:52:02;4.87;;;3.10;;
6292;SDS011;3179;54.350;10.102;2023-04-22T12:54:28;3.47;;;2.80;;
6292;SDS011;3179;54.350;10.102;2023-04-22T12:56:56;3.50;;;2.53;;
6292;SDS011;3179;54.350;10.102;2023-04-22T12:59:23;5.90;;;2.40;;
6292;SDS011;3179;54.350;10.102;2023-04-22T13:01:50;2.80;;;2.33;;
6292;SDS011;3179;54.350;10.102;2023-04-22T13:04:18;5.80;;;2.93;;
6292;SDS011;3179;54.350;10.102;2023-04-22T13:06:45;7.00;;;2.87;;
6292;SDS011;3179;54.350;10.102;2023-04-22T13:09:14;3.90;;;2.90;;
6292;SDS011;3179;54.350;10.102;2023-04-22T13:11:41;4.60;;;2.80;;
6292;SDS011;3179;54.350;10.102;2023-04-22T13:14:09;2.30;;;2.10;;
6292;SDS011;3179;54.350;10.102;2023-04-22T13:16:36;2.20;;;2.00;;
6292;SDS011;3179;54.350;10.102;2023-04-22T13:19:02;2.60;;;2.10;;
6292;SDS011;3179;54.350;10.102;2023-04-22T13:21:29;2.67;;;2.40;;
6292;SDS011;3179;54.350;10.102;2023-04-22T13:23:56;3.90;;;2.63;;
6292;SDS011;3179;54.350;10.102;2023-04-22T13:26:23;3.27;;;2.57;;
6292;SDS011;3179;54.350;10.102;2023-04-22T13:28:50;2.80;;;2.60;;
6292;SDS011;3179;54.350;10.102;2023-04-22T13:31:18;5.50;;;2.30;;
6292;SDS011;3179;54.350;10.102;2023-04-22T13:33:45;7.20;;;2.37;;
6292;SDS011;3179;54.350;10.102;2023-04-22T13:36:11;3.87;;;2.40;;
6292;SDS011;3179;54.350;10.102;2023-04-22T13:38:38;4.40;;;2.90;;
6292;SDS011;3179;54.350;10.102;2023-04-22T13:41:05;2.63;;;2.40;;
6292;SDS011;3179;54.350;10.102;2023-04-22T13:43:32;3.17;;;2.43;;
6292;SDS011;3179;54.350;10.102;2023-04-22T13:45:58;3.43;;;2.37;;
6292;SDS011;3179;54.350;10.102;2023-04-22T13:48:27;2.60;;;2.40;;
6292;SDS011;3179;54.350;10.102;2023-04-22T13:50:54;2.50;;;2.30;;
6292;SDS011;3179;54.350;10.102;2023-04-22T13:53:20;2.73;;;2.43;;
6292;SDS011;3179;54.350;10.102;2023-04-22T13:55:47;2.80;;;2.50;;
6292;SDS011;3179;54.350;10.102;2023-04-22T13:58:14;3.73;;;2.43;;
6292;SDS011;3179;54.350;10.102;2023-04-22T14:00:41;3.10;;;2.73;;
6292;SDS011;3179;54.350;10.102;2023-04-22T14:03:07;2.10;;;2.00;;
6292;SDS011;3179;54.350;10.102;2023-04-22T14:05:35;3.53;;;2.13;;
6292;SDS011;3179;54.350;10.102;2023-04-22T14:08:02;2.67;;;2.20;;
6292;SDS011;3179;54.350;10.102;2023-04-22T14:10:29;2.33;;;2.13;;
6292;SDS011;3179;54.350;10.102;2023-04-22T14:12:56;2.60;;;2.23;;
6292;SDS011;3179;54.350;10.102;2023-04-22T14:15:23;4.37;;;2.10;;
6292;SDS011;3179;54.350;10.102;2023-04-22T14:17:50;5.00;;;2.40;;
6292;SDS011;3179;54.350;10.102;2023-04-22T14:20:16;3.70;;;2.43;;
6292;SDS011;3179;54.350;10.102;2023-04-22T14:22:44;2.40;;;2.20;;
6292;SDS011;3179;54.350;10.102;2023-04-22T14:25:11;3.20;;;2.20;;
6292;SDS011;3179;54.350;10.102;2023-04-22T14:27:38;2.50;;;2.13;;
6292;SDS011;3179;54.350;10.102;2023-04-22T14:30:05;2.37;;;2.10;;
6292;SDS011;3179;54.350;10.102;2023-04-22T14:32:33;4.03;;;2.73;;
6292;SDS011;3179;54.350;10.102;2023-04-22T14:35:00;2.50;;;2.30;;
6292;SDS011;3179;54.350;10.102;2023-04-22T14:37:27;3.77;;;2.57;;
6292;SDS011;3179;54.350;10.102;2023-04-22T14:39:56;2.30;;;2.10;;
6292;SDS011;3179;54.350;10.102;2023-04-22T14:42:23;2.53;;;2.30;;
6292;SDS011;3179;54.350;10.102;2023-04-22T14:44:50;2.53;;;2.33;;
6292;SDS011;3179;54.350;10.102;2023-04-22T14:47:17;3.23;;;2.50;;
6292;SDS011;3179;54.350;10.102;2023-04-22T14:49:44;2.73;;;2.30;;
6292;SDS011;3179;54.350;10.102;2023-04-22T14:52:11;2.90;;;2.53;;
6292;SDS011;3179;54.350;10.102;2023-04-22T14:54:37;4.50;;;2.83;;
6292;SDS011;3179;54.350;10.102;2023-04-22T14:57:05;2.10;;;1.93;;
6292;SDS011;3179;54.350;10.102;2023-04-22T14:59:32;3.20;;;2.90;;
6292;SDS011;3179;54.350;10.102;2023-04-22T15:01:59;2.70;;;2.43;;
6292;SDS011;3179;54.350;10.102;2023-04-22T15:04:26;5.40;;;2.63;;